Arbil, Iraq
Current Conditions -  °F | °C
As of 9:00 AM on Wednesday 28 Jan 2015 (Local Time) from ORSU Reporting Station
Sand / Dust Storm Sand / Dust Storm  
Wind Chill: 45°   Ceiling: 7000
Heat Index: 45°   Visibility: 3mi
Dew Point: 39°   Wind: 3mph
Humidity: 81%   Direction: NA
Pressure: 30.15"   Gusts: NA
Location:  36.19°N, 44.01°E
Report Text: ORSU 280600Z VRB03KT 5000 DU SCT045 OVC070 07/04 Q1021
Loading
Personal Weather Stations






























Interactive Weather Map New forecast layout! Learn more

10-Day Weather Forecast

Advertisements
Track Severe Weather on mobile